createdAt,value
2022-11-07T00:01:40.978Z,11.40
2022-11-07T00:04:07.505Z,11.40
2022-11-07T00:06:34.130Z,11.40
2022-11-07T00:09:00.637Z,11.40
2022-11-07T00:11:27.211Z,11.30
2022-11-07T00:13:54.303Z,11.30
2022-11-07T00:16:21.093Z,11.30
2022-11-07T00:18:47.624Z,11.30
2022-11-07T00:21:14.141Z,11.30
2022-11-07T00:23:42.141Z,11.30
2022-11-07T00:26:13.664Z,11.30
2022-11-07T00:28:42.737Z,11.20
2022-11-07T00:31:12.597Z,11.20
2022-11-07T00:33:39.999Z,11.12
2022-11-07T00:36:07.529Z,11.10
2022-11-07T00:38:34.410Z,11.10
2022-11-07T00:41:06.447Z,11.10
2022-11-07T00:43:33.408Z,11.10
2022-11-07T00:46:05.424Z,11.10
2022-11-07T00:48:33.003Z,11.20
2022-11-07T00:51:11.836Z,11.20
2022-11-07T00:53:39.556Z,11.20
2022-11-07T00:56:13.266Z,11.20
2022-11-07T00:58:42.566Z,11.28
2022-11-07T01:01:17.140Z,11.30
2022-11-07T01:04:03.204Z,11.30
2022-11-07T01:06:32.929Z,11.30
2022-11-07T01:08:59.708Z,11.40
2022-11-07T01:11:28.967Z,11.40
2022-11-07T01:13:58.240Z,11.50
2022-11-07T01:16:26.617Z,11.52
2022-11-07T01:18:53.906Z,11.60
2022-11-07T01:21:20.998Z,11.60
2022-11-07T01:23:47.939Z,11.60
2022-11-07T01:26:16.030Z,11.68
2022-11-07T01:28:43.272Z,11.70
2022-11-07T01:31:13.564Z,11.70
2022-11-07T01:33:40.838Z,11.70
2022-11-07T01:36:12.551Z,11.80
2022-11-07T01:38:43.241Z,11.80
2022-11-07T01:41:21.130Z,11.80
2022-11-07T01:44:24.322Z,11.80
2022-11-07T01:46:55.675Z,11.76
2022-11-07T01:49:36.785Z,11.70
2022-11-07T01:52:19.189Z,11.70
2022-11-07T01:55:02.352Z,11.70
2022-11-07T01:57:45.405Z,11.70
2022-11-07T02:00:16.882Z,11.70
2022-11-07T02:02:45.785Z,11.66
2022-11-07T02:05:19.627Z,11.70
2022-11-07T02:07:46.893Z,11.70
2022-11-07T02:10:14.744Z,11.70
2022-11-07T02:12:42.403Z,11.70
2022-11-07T02:15:10.729Z,11.70
2022-11-07T02:17:37.357Z,11.74
2022-11-07T02:20:04.787Z,11.80
2022-11-07T02:23:01.528Z,11.80
2022-11-07T02:25:29.908Z,11.80
2022-11-07T02:28:02.385Z,11.70
2022-11-07T02:30:34.418Z,11.70
2022-11-07T02:33:02.616Z,11.70
2022-11-07T02:35:37.009Z,11.70
2022-11-07T02:38:14.149Z,11.68
2022-11-07T02:40:41.577Z,11.60
2022-11-07T02:43:11.711Z,11.60
2022-11-07T02:45:42.599Z,11.50
2022-11-07T02:48:09.619Z,11.50
2022-11-07T02:50:36.510Z,11.50
2022-11-07T02:53:03.109Z,11.46
2022-11-07T02:55:29.638Z,11.40
2022-11-07T02:57:56.218Z,11.40
2022-11-07T03:00:22.802Z,11.40
2022-11-07T03:02:49.834Z,11.40
2022-11-07T03:05:19.731Z,11.40
2022-11-07T03:07:48.882Z,11.40
2022-11-07T03:10:17.093Z,11.34
2022-11-07T03:12:43.772Z,11.30
2022-11-07T03:15:11.898Z,11.30
2022-11-07T03:17:38.504Z,11.30
2022-11-07T03:20:06.071Z,11.20
2022-11-07T03:22:32.692Z,11.20
2022-11-07T03:24:59.235Z,11.20
2022-11-07T03:27:25.805Z,11.20
2022-11-07T03:29:52.555Z,11.10
2022-11-07T03:32:19.153Z,11.10
2022-11-07T03:34:45.777Z,11.10
2022-11-07T03:37:12.309Z,11.04
2022-11-07T03:39:38.846Z,11.00
2022-11-07T03:42:05.647Z,11.00
2022-11-07T03:44:32.198Z,11.00
2022-11-07T03:46:58.707Z,10.90
2022-11-07T03:49:25.295Z,10.90
2022-11-07T03:51:51.811Z,10.90
2022-11-07T03:54:18.348Z,10.80
2022-11-07T03:56:44.881Z,10.80
2022-11-07T03:59:11.410Z,10.80
2022-11-07T04:01:38.104Z,10.72
2022-11-07T04:04:04.973Z,10.70
2022-11-07T04:06:32.259Z,10.70
2022-11-07T04:08:58.790Z,10.70
2022-11-07T04:11:43.857Z,10.70
2022-11-07T04:14:28.910Z,10.70
2022-11-07T04:17:13.927Z,10.70
2022-11-07T04:19:40.429Z,10.70
2022-11-07T04:22:06.995Z,10.62
2022-11-07T04:24:33.526Z,10.62
2022-11-07T04:27:18.870Z,10.60
2022-11-07T04:29:45.505Z,10.60
2022-11-07T04:32:12.063Z,10.60
2022-11-07T04:34:38.657Z,10.60
2022-11-07T04:37:05.187Z,10.54
2022-11-07T04:39:31.751Z,10.50
2022-11-07T04:41:58.259Z,10.50
2022-11-07T04:44:24.826Z,10.50
2022-11-07T04:46:51.356Z,10.50
2022-11-07T04:49:18.583Z,10.44
2022-11-07T04:51:45.233Z,10.40
2022-11-07T04:54:16.390Z,10.40
2022-11-07T05:06:38.939Z,10.30
2022-11-07T05:09:05.498Z,10.30
2022-11-07T05:11:32.036Z,10.28
2022-11-07T05:13:58.650Z,10.20
2022-11-07T05:16:25.211Z,10.20
2022-11-07T05:18:51.721Z,10.20
2022-11-07T05:21:18.279Z,10.20
2022-11-07T05:23:45.161Z,10.14
2022-11-07T05:26:11.678Z,10.10
2022-11-07T05:28:39.777Z,10.10
2022-11-07T05:31:08.898Z,10.10
2022-11-07T05:33:35.952Z,10.04
2022-11-07T05:36:21.199Z,10.00
2022-11-07T05:38:52.039Z,10.00
2022-11-07T05:41:21.410Z,10.00
2022-11-07T05:43:48.393Z,10.00
2022-11-07T05:46:15.045Z,9.90
2022-11-07T05:48:41.655Z,9.90
2022-11-07T05:51:09.157Z,9.90
2022-11-07T05:53:36.282Z,9.90
2022-11-07T05:56:03.495Z,9.82
2022-11-07T05:58:30.179Z,9.80
2022-11-07T06:01:06.003Z,9.80
2022-11-07T06:03:33.057Z,9.80
2022-11-07T06:05:59.716Z,9.80
2022-11-07T06:08:26.323Z,9.80
2022-11-07T06:10:52.872Z,9.74
2022-11-07T06:13:19.564Z,9.70
2022-11-07T06:15:46.878Z,9.70
2022-11-07T06:18:18.710Z,9.70
2022-11-07T06:20:45.769Z,9.70
2022-11-07T06:23:12.972Z,9.70
2022-11-07T06:25:41.421Z,9.70
2022-11-07T06:28:13.845Z,9.70
2022-11-07T06:30:40.798Z,9.70
2022-11-07T06:33:13.795Z,9.70
2022-11-07T06:35:41.078Z,9.70
2022-11-07T06:38:10.478Z,9.70
2022-11-07T06:40:37.594Z,9.70
2022-11-07T06:43:11.263Z,9.70
2022-11-07T06:45:38.639Z,9.74
2022-11-07T06:48:06.020Z,9.78
2022-11-07T06:50:33.149Z,9.80
2022-11-07T06:53:05.210Z,9.80
2022-11-07T06:55:35.378Z,9.84
2022-11-07T06:58:02.662Z,9.90
2022-11-07T07:00:35.722Z,9.90
2022-11-07T07:03:02.792Z,10.00
2022-11-07T07:05:29.590Z,10.00
2022-11-07T07:07:56.447Z,10.10
2022-11-07T07:10:25.719Z,10.10
2022-11-07T07:12:53.939Z,10.20
2022-11-07T07:15:20.954Z,10.20
2022-11-07T07:17:47.546Z,10.20
2022-11-07T07:20:14.465Z,10.28
2022-11-07T07:22:41.018Z,10.30
2022-11-07T07:25:08.978Z,10.30
2022-11-07T07:27:35.566Z,10.40
2022-11-07T07:30:02.100Z,10.40
2022-11-07T07:32:28.789Z,10.48
2022-11-07T07:34:55.265Z,10.50
2022-11-07T07:37:21.791Z,10.58
2022-11-07T07:39:48.367Z,10.60
2022-11-07T07:42:14.897Z,10.70
2022-11-07T07:44:44.355Z,10.76
2022-11-07T07:47:11.647Z,10.80
2022-11-07T07:49:38.769Z,10.90
2022-11-07T07:52:05.957Z,11.00
2022-11-07T07:54:32.663Z,11.10
2022-11-07T07:56:59.268Z,11.18
2022-11-07T07:59:25.865Z,11.26
2022-11-07T08:01:56.932Z,11.38
2022-11-07T08:04:23.975Z,11.50
2022-11-07T08:06:50.550Z,11.50
2022-11-07T08:09:17.131Z,11.60
2022-11-07T08:11:43.659Z,11.70
2022-11-07T08:14:11.633Z,11.80
2022-11-07T08:16:38.344Z,11.90
2022-11-07T08:19:05.226Z,12.00
2022-11-07T08:21:31.879Z,12.06
2022-11-07T08:23:58.435Z,12.10
2022-11-07T08:26:26.036Z,12.20
2022-11-07T08:28:54.556Z,12.30
2022-11-07T08:31:21.084Z,12.40
2022-11-07T08:33:47.692Z,12.50
2022-11-07T08:36:14.621Z,12.60
2022-11-07T08:38:41.126Z,12.64
2022-11-07T08:41:08.308Z,12.70
2022-11-07T08:43:34.879Z,12.80
2022-11-07T08:46:01.490Z,12.86
2022-11-07T08:48:28.059Z,12.90
2022-11-07T08:50:57.810Z,13.00
2022-11-07T08:53:26.838Z,13.02
2022-11-07T08:56:01.729Z,13.10
2022-11-07T08:58:30.149Z,13.20
2022-11-07T09:00:58.383Z,13.26
2022-11-07T09:06:11.909Z,13.42
2022-11-07T09:08:38.513Z,13.60
2022-11-07T09:11:06.017Z,13.70
2022-11-07T09:13:34.596Z,14.26
2022-11-07T09:16:03.571Z,15.22
2022-11-07T09:18:31.070Z,16.12
2022-11-07T09:20:58.836Z,17.00
2022-11-07T09:23:25.796Z,17.94
2022-11-07T09:25:52.413Z,18.94
2022-11-07T09:28:18.913Z,19.86
2022-11-07T09:30:45.476Z,20.48
2022-11-07T09:33:12.040Z,21.28
2022-11-07T09:35:38.585Z,22.08
2022-11-07T09:38:05.175Z,22.84
2022-11-07T09:40:53.068Z,23.38
2022-11-07T09:43:53.229Z,24.10
2022-11-07T09:46:34.445Z,24.30
2022-11-07T09:49:44.939Z,25.00
2022-11-07T09:52:45.717Z,24.90
2022-11-07T09:55:42.033Z,25.68
2022-11-07T09:58:31.822Z,26.30
2022-11-07T10:01:06.019Z,26.70
2022-11-07T10:03:38.367Z,27.10
2022-11-07T10:06:28.353Z,26.70
2022-11-07T10:09:23.549Z,26.90
2022-11-07T10:12:11.516Z,26.62
2022-11-07T10:15:03.471Z,26.36
2022-11-07T10:17:47.148Z,26.26
2022-11-07T10:20:35.883Z,25.68
2022-11-07T10:23:41.272Z,25.20
2022-11-07T10:26:13.203Z,24.78
2022-11-07T10:28:48.560Z,24.30
2022-11-07T10:31:16.470Z,24.34
2022-11-07T10:33:54.813Z,24.60
2022-11-07T10:36:30.154Z,24.40
2022-11-07T10:38:58.362Z,24.20
2022-11-07T10:41:29.403Z,23.74
2022-11-07T10:44:09.929Z,23.14
2022-11-07T10:46:51.526Z,22.60
2022-11-07T10:49:23.634Z,22.22
2022-11-07T10:51:51.950Z,21.88
2022-11-07T10:54:30.932Z,21.46
2022-11-07T10:57:34.144Z,20.96
2022-11-07T11:00:00.942Z,20.50
2022-11-07T11:02:38.563Z,20.48
2022-11-07T11:05:27.502Z,20.30
2022-11-07T11:08:32.086Z,20.12
2022-11-07T11:10:58.651Z,20.00
2022-11-07T11:13:32.988Z,19.86
2022-11-07T11:16:24.330Z,19.68
2022-11-07T11:18:59.972Z,19.50
2022-11-07T11:21:38.788Z,19.30
2022-11-07T11:24:15.957Z,19.20
2022-11-07T11:26:44.647Z,19.00
2022-11-07T11:29:21.142Z,18.88
2022-11-07T11:31:51.985Z,18.60
2022-11-07T11:34:49.425Z,18.60
2022-11-07T11:37:21.716Z,18.54
2022-11-07T11:40:00.219Z,18.50
2022-11-07T11:43:03.013Z,18.40
2022-11-07T11:45:57.839Z,18.20
2022-11-07T11:49:08.590Z,18.02
2022-11-07T11:51:45.765Z,17.90
2022-11-07T11:54:15.621Z,17.80
2022-11-07T11:56:53.065Z,17.80
2022-11-07T11:59:45.605Z,17.80
2022-11-07T12:02:47.531Z,17.80
2022-11-07T12:05:45.366Z,17.80
2022-11-07T12:08:26.293Z,17.80
2022-11-07T12:11:24.255Z,17.78
2022-11-07T12:14:18.483Z,17.80
2022-11-07T12:17:11.217Z,17.90
2022-11-07T12:20:10.518Z,18.00
2022-11-07T12:23:19.558Z,18.08
2022-11-07T12:25:58.872Z,18.10
2022-11-07T12:28:54.649Z,18.10
2022-11-07T12:32:06.616Z,18.20
2022-11-07T12:35:14.691Z,18.10
2022-11-07T12:38:19.247Z,18.00
2022-11-07T12:41:26.550Z,17.90
2022-11-07T12:44:28.163Z,17.80
2022-11-07T12:46:58.597Z,17.80
2022-11-07T12:49:56.333Z,17.70
2022-11-07T12:52:41.043Z,17.80
2022-11-07T12:55:24.744Z,17.60
2022-11-07T12:57:54.426Z,17.60
2022-11-07T13:00:29.645Z,17.60
2022-11-07T13:03:41.478Z,17.60
2022-11-07T13:06:25.892Z,17.60
2022-11-07T13:09:32.790Z,17.60
2022-11-07T13:12:23.207Z,17.70
2022-11-07T13:14:50.261Z,17.70
2022-11-07T13:17:20.965Z,17.60
2022-11-07T13:20:26.386Z,17.60
2022-11-07T13:23:01.360Z,17.50
2022-11-07T13:25:33.435Z,17.40
2022-11-07T13:28:26.810Z,17.36
2022-11-07T13:31:02.455Z,17.30
2022-11-07T13:33:35.811Z,17.30
2022-11-07T13:36:27.124Z,17.24
2022-11-07T13:38:59.719Z,17.10
2022-11-07T13:41:26.620Z,17.10
2022-11-07T13:43:59.346Z,17.10
2022-11-07T13:46:39.827Z,17.00
2022-11-07T13:49:27.832Z,16.90
2022-11-07T13:52:01.680Z,16.80
2022-11-07T13:54:53.627Z,16.70
2022-11-07T13:57:35.419Z,16.60
2022-11-07T14:00:07.027Z,16.60
2022-11-07T14:03:01.594Z,16.56
2022-11-07T14:05:36.124Z,16.40
2022-11-07T14:08:05.888Z,16.40
2022-11-07T14:10:47.293Z,16.30
2022-11-07T14:13:23.449Z,16.20
2022-11-07T14:15:57.619Z,16.20
2022-11-07T14:18:32.897Z,16.10
2022-11-07T14:21:00.482Z,16.00
2022-11-07T14:23:32.640Z,16.00
2022-11-07T14:26:15.514Z,15.90
2022-11-07T14:28:42.545Z,15.90
2022-11-07T14:31:24.785Z,15.80
2022-11-07T14:33:56.294Z,15.80
2022-11-07T14:36:23.703Z,15.74
2022-11-07T14:38:54.675Z,15.70
2022-11-07T14:41:23.062Z,15.60
2022-11-07T14:43:51.134Z,15.50
2022-11-07T14:46:25.573Z,15.50
2022-11-07T14:48:53.315Z,15.50
2022-11-07T14:51:27.499Z,15.42
2022-11-07T14:54:17.177Z,15.40
2022-11-07T14:56:50.425Z,15.40
2022-11-07T14:59:18.839Z,15.40
2022-11-07T15:02:20.350Z,15.40
2022-11-07T15:04:48.068Z,15.30
2022-11-07T15:07:33.960Z,15.20
2022-11-07T15:10:17.348Z,15.20
2022-11-07T15:12:54.889Z,15.10
2022-11-07T15:15:25.712Z,15.10
2022-11-07T15:18:01.084Z,15.00
2022-11-07T15:20:30.506Z,15.00
2022-11-07T15:23:21.049Z,14.90
2022-11-07T15:26:29.763Z,14.80
2022-11-07T15:29:14.578Z,14.70
2022-11-07T15:31:48.554Z,14.70
2022-11-07T15:34:29.069Z,14.60
2022-11-07T15:37:20.370Z,14.54
2022-11-07T15:39:47.058Z,14.50
2022-11-07T15:42:13.833Z,14.40
2022-11-07T15:44:40.940Z,14.38
2022-11-07T15:47:09.977Z,14.30
2022-11-07T15:49:36.614Z,14.30
2022-11-07T15:52:03.235Z,14.20
2022-11-07T15:54:29.777Z,14.20
2022-11-07T15:57:00.837Z,14.10
2022-11-07T15:59:33.514Z,14.10
2022-11-07T16:02:01.323Z,14.10
2022-11-07T16:04:28.041Z,14.00
2022-11-07T16:06:54.618Z,14.00
2022-11-07T16:09:22.393Z,13.90
2022-11-07T16:11:49.041Z,13.90
2022-11-07T16:14:42.999Z,13.80
2022-11-07T16:17:06.606Z,13.80
2022-11-07T16:19:33.195Z,13.70
2022-11-07T16:21:59.767Z,13.70
2022-11-07T16:24:26.281Z,13.70
2022-11-07T16:26:54.151Z,13.60
2022-11-07T16:29:21.278Z,13.60
2022-11-07T16:31:47.801Z,13.50
2022-11-07T16:34:14.419Z,13.50
2022-11-07T16:36:41.158Z,13.46
2022-11-07T16:39:19.020Z,13.40
2022-11-07T16:41:45.679Z,13.40
2022-11-07T16:44:12.432Z,13.36
2022-11-07T16:46:40.913Z,13.30
2022-11-07T16:49:43.338Z,13.30
2022-11-07T16:52:17.778Z,13.28
2022-11-07T16:54:45.728Z,13.20
2022-11-07T16:57:17.810Z,13.20
2022-11-07T16:59:46.140Z,13.20
2022-11-07T17:02:23.391Z,13.10
2022-11-07T17:04:52.374Z,13.10
2022-11-07T17:07:21.981Z,13.10
2022-11-07T17:09:50.028Z,13.10
2022-11-07T17:12:20.776Z,13.00
2022-11-07T17:14:47.773Z,13.00
2022-11-07T17:17:16.581Z,13.00
2022-11-07T17:19:43.464Z,13.00
2022-11-07T17:22:11.577Z,12.98
2022-11-07T17:24:38.925Z,12.90
2022-11-07T17:27:23.642Z,12.90
2022-11-07T17:29:52.174Z,12.90
2022-11-07T17:32:19.567Z,12.90
2022-11-07T17:34:48.760Z,12.90
2022-11-07T17:37:26.056Z,12.90
2022-11-07T17:39:52.581Z,12.86
2022-11-07T17:42:19.176Z,12.82
2022-11-07T17:44:45.713Z,12.80
2022-11-07T17:47:34.248Z,12.80
2022-11-07T17:50:01.092Z,12.70
2022-11-07T17:52:28.177Z,12.70
2022-11-07T17:54:54.908Z,12.70
2022-11-07T17:57:21.629Z,12.60
2022-11-07T17:59:49.248Z,12.60
2022-11-07T18:02:18.645Z,12.52
2022-11-07T18:04:46.833Z,12.50
2022-11-07T18:07:13.552Z,12.50
2022-11-07T18:09:41.158Z,12.50
2022-11-07T18:12:09.152Z,12.40
2022-11-07T18:14:35.762Z,12.40
2022-11-07T18:17:02.290Z,12.34
2022-11-07T18:19:29.312Z,12.30
2022-11-07T18:21:55.889Z,12.30
2022-11-07T18:24:22.686Z,12.20
2022-11-07T18:26:51.356Z,12.20
2022-11-07T18:29:18.525Z,12.14
2022-11-07T18:31:47.318Z,12.10
2022-11-07T18:34:14.759Z,12.10
2022-11-07T18:36:43.545Z,12.10
2022-11-07T18:39:22.321Z,12.00
2022-11-07T18:41:50.779Z,12.00
2022-11-07T18:44:18.186Z,11.94
2022-11-07T18:46:45.054Z,11.90
2022-11-07T18:49:14.082Z,11.90
2022-11-07T18:51:42.772Z,11.80
2022-11-07T18:54:11.473Z,11.80
2022-11-07T18:56:40.994Z,11.80
2022-11-07T18:59:07.795Z,11.80
2022-11-07T19:01:34.589Z,11.80
2022-11-07T19:04:05.788Z,11.78
2022-11-07T19:06:34.744Z,11.70
2022-11-07T19:09:01.783Z,11.70
2022-11-07T19:11:31.539Z,11.70
2022-11-07T19:14:02.778Z,11.70
2022-11-07T19:16:30.487Z,11.70
2022-11-07T19:18:59.439Z,11.60
2022-11-07T19:21:26.457Z,11.60
2022-11-07T19:23:53.069Z,11.60
2022-11-07T19:26:19.845Z,11.50
2022-11-07T19:28:47.061Z,11.50
2022-11-07T19:31:14.216Z,11.44
2022-11-07T19:33:42.000Z,11.40
2022-11-07T19:36:15.148Z,11.38
2022-11-07T19:38:41.975Z,11.30
2022-11-07T19:41:10.412Z,11.30
2022-11-07T19:43:38.308Z,11.28
2022-11-07T19:46:21.891Z,11.20
2022-11-07T19:48:50.525Z,11.20
2022-11-07T19:51:23.054Z,11.14
2022-11-07T19:53:56.974Z,11.10
2022-11-07T19:56:26.475Z,11.10
2022-11-07T19:58:54.464Z,11.08
2022-11-07T20:01:28.926Z,11.00
2022-11-07T20:03:56.306Z,11.00
2022-11-07T20:06:35.899Z,11.00
2022-11-07T20:09:06.875Z,10.90
2022-11-07T20:11:33.895Z,10.90
2022-11-07T20:14:03.562Z,10.90
2022-11-07T20:16:32.977Z,10.88
2022-11-07T20:19:01.121Z,10.80
2022-11-07T20:21:28.988Z,10.80
2022-11-07T20:23:58.180Z,10.80
2022-11-07T20:26:31.001Z,10.80
2022-11-07T20:28:59.112Z,10.74
2022-11-07T20:31:32.830Z,10.70
2022-11-07T20:34:02.308Z,10.70
2022-11-07T20:36:31.159Z,10.70
2022-11-07T20:38:59.131Z,10.70
2022-11-07T20:41:27.221Z,10.60
2022-11-07T20:44:06.654Z,10.60
2022-11-07T20:46:36.722Z,10.60
2022-11-07T20:49:06.996Z,10.50
2022-11-07T20:51:34.178Z,10.50
2022-11-07T20:54:00.819Z,10.50
2022-11-07T20:56:29.043Z,10.40
2022-11-07T20:58:58.196Z,10.40
2022-11-07T21:01:36.594Z,10.40
2022-11-07T21:04:09.666Z,10.40
2022-11-07T21:06:37.282Z,10.40
2022-11-07T21:09:05.354Z,10.36
2022-11-07T21:11:32.279Z,10.30
2022-11-07T21:13:59.497Z,10.30
2022-11-07T21:16:26.393Z,10.30
2022-11-07T21:18:54.582Z,10.30
2022-11-07T21:21:27.584Z,10.22
2022-11-07T21:23:57.169Z,10.20
2022-11-07T21:26:34.929Z,10.16
2022-11-07T21:29:06.504Z,10.10
2022-11-07T21:31:35.743Z,10.06
2022-11-07T21:34:02.359Z,10.00
2022-11-07T21:36:30.862Z,9.94
2022-11-07T21:38:59.569Z,9.90
2022-11-07T21:41:27.942Z,9.90
2022-11-07T21:43:54.578Z,9.88
2022-11-07T21:46:28.770Z,9.80
2022-11-07T21:48:57.211Z,9.80
2022-11-07T21:51:33.037Z,9.80
2022-11-07T21:54:00.602Z,9.80
2022-11-07T21:56:31.181Z,9.76
2022-11-07T21:59:05.503Z,9.70
2022-11-07T22:01:35.561Z,9.70
2022-11-07T22:04:08.067Z,9.70
2022-11-07T22:06:44.644Z,9.70
2022-11-07T22:09:20.632Z,9.68
2022-11-07T22:11:49.236Z,9.60
2022-11-07T22:14:21.826Z,9.60
2022-11-07T22:16:50.477Z,9.60
2022-11-07T22:19:18.582Z,9.60
2022-11-07T22:21:45.356Z,9.60
2022-11-07T22:24:12.090Z,9.52
2022-11-07T22:26:38.724Z,9.54
2022-11-07T22:29:05.257Z,9.54
2022-11-07T22:31:32.037Z,9.54
2022-11-07T22:34:00.379Z,9.60
2022-11-07T22:36:28.695Z,9.60
2022-11-07T22:38:57.904Z,9.60
2022-11-07T22:41:28.139Z,9.60
2022-11-07T22:43:56.084Z,9.50
2022-11-07T22:46:27.379Z,9.50
2022-11-07T22:48:55.187Z,9.50
2022-11-07T22:51:31.135Z,9.50
2022-11-07T22:54:03.852Z,9.50
2022-11-07T22:56:31.182Z,9.50
2022-11-07T22:58:58.569Z,9.50
2022-11-07T23:01:28.638Z,9.50
2022-11-07T23:03:56.923Z,9.50
2022-11-07T23:06:25.178Z,9.44
2022-11-07T23:08:52.292Z,9.40
2022-11-07T23:11:47.529Z,9.40
2022-11-07T23:14:21.481Z,9.40
2022-11-07T23:16:53.634Z,9.40
2022-11-07T23:19:24.725Z,9.40
2022-11-07T23:21:54.987Z,9.40
2022-11-07T23:24:21.802Z,9.38
2022-11-07T23:26:49.243Z,9.32
2022-11-07T23:29:24.228Z,9.30
2022-11-07T23:31:52.390Z,9.30
2022-11-07T23:34:21.180Z,9.30
2022-11-07T23:36:50.892Z,9.30
2022-11-07T23:39:21.184Z,9.30
2022-11-07T23:41:48.347Z,9.20
2022-11-07T23:44:15.614Z,9.20
2022-11-07T23:47:01.935Z,9.20
2022-11-07T23:49:47.464Z,9.10
2022-11-07T23:52:14.335Z,9.10
2022-11-07T23:54:59.931Z,9.10
2022-11-07T23:57:26.958Z,9.04
